Buffalo Narrows, Canada
Current Conditions -  °F | °C
As of 10:00 PM on Sunday 19 Oct 2014 (Local Time) from CYVT Reporting Station
Scattered Clouds Scattered Clouds  
Wind Chill: 50°   Ceiling: Unl
Heat Index: 50°   Visibility: 15mi
Dew Point: 39°   Wind: 14mph
Humidity: 66%   Direction: 130°SE
Pressure: 29.75"   Gusts: NA
Location:  55.87°N, 108.48°W
Report Text: CYVT 200400Z 13012KT 15SM FEW100 SCT240 10/04 A2975 RMK AC2CI1 LAST STFD OBS/NEXT 201200UTC SLP089
Loading
Personal Weather Stations






























Interactive Weather Map
Tropical Storm Tracking
New forecast layout! Learn more

10-Day Weather Forecast

Advertisements
Track Severe Weather on mobile